SEASEATTLE-TACOMA INTL
METARs for nearby airports:
N 0 432' KSEA 121053Z 11003KT 10SM BKN220 02/M03 A3045
NE 4 32' KRNT 121053Z 00000KT 10SM CLR 00/M02 A3047
N 4 21' KBFI 121053Z 16003KT 10SM CLR M01/M03 A3047
SW 15 294' KTIW 121053Z 00000KT 10SM CLR 02/M01 A3046
W 18 443' KPWT 121056Z 00000KT 10SM FEW110 M02/M03 A3045
S 19 322' KTCM 121108Z 00000KT 4SM BR CLR M04/M04 A3045
S 20 537' KPLU 121135Z 00000KT 9SM OVC090 M03/M02 A3043
SW 24 300' KGRF 121058Z 12006KT 10SM CLR M03/M03 A3045
N 27 607' KPAE 121053Z 00000KT 10SM CLR 04/M05 A3045
W 36 272' KSHN 121053Z 01003KT 9SM BKN110 M01/M02 A3043
SW 37 207' KOLM 121054Z 22005KT 10SM CLR 00/M03 A3046
N 43 141' KAWO 121056Z 07004KT 10SM SCT120 M02/M02 A3047
SW 53 177' KCLS 121135Z 22005KT 10SM OVC080 00/M03 A3046
N 55 47' KNUW 121056Z 11006KT 10SM FEW025 SCT050 BKN120 04/00 A3049
NW 60 13' KNOW 121135Z 21004KT 10SM SCT070 OVC090 06/04 A3044
N 61 145' KBVS 121135Z 00000KT 10SM OVC049 03/00 A3045
NW 62 291' KCLM 121053Z 00000KT 10SM FEW070 OVC090 03/03 A3045
NW 70 112' KFHR 121053Z 00000KT 10SM BKN040 OVC090 03/02 A3046
SW 72 17' KHQM 121053Z 07009KT 9SM FEW033 OVC090 02/01 A3043
E 76 1763' KELN 121053Z 10SM OVC013 M02/M06 A3060
N 79 34' KORS 121135Z 00000KT 10SM OVC037 07/03 A3044
N 81 170' KBLI 121053Z 00000KT 9SM OVC044 02/01 A3045
S 83 20' KKLS 121056Z 00000KT 10SM CLR M02/M04 A3050
NW 84 64' CYYJ 121100Z 25003KT 240V300 20SM FEW026 SCT048 OVC070 03/02 A3044
E 85 1248' KEAT 121055Z 03003KT 10SM OVC018 M02/M06 A3064
SE 89 1098' KYKM 121053Z 00000KT 10SM OVC018 00/M04 A3066
W 95 193' KUIL 121140Z 00000KT 10SM SCT018 OVC031 07/06 A3042
TAFs for nearby airports:
N 0 432' KSEA TAF KSEA 121120Z 1212/1318 12004KT P6SM BKN200
  FM122000 VRB03KT P6SM SCT080 SCT150
N 4 21' KBFI TAF KBFI 121120Z 1212/1312 12004KT P6SM BKN200
  FM122000 VRB03KT P6SM SCT080 SCT150
W 18 443' KPWT TAF KPWT 121120Z 1212/1312 00000KT P6SM SCT100 BKN200
  FM121700 VRB03KT P6SM SCT080 BKN150
  FM122200 VRB03KT P6SM SCT080 SCT150
S 19 322' KTCM TAF KTCM 120459Z 1205/1311 VRB06KT 9999 FEW200 QNH3038INS
  TEMPO 1211/1216 0800 FZFG
  BECMG 1217/1218 09006KT 9999 BKN050 QNH3039INS
  BECMG 1305/1306 04006KT 9999 FEW060 QNH3038INS TX07/1221Z TNM05/1212Z
SW 24 300' KGRF TAF TAF KGRF 120501Z 1205/1311 VRB06KT 9999 FEW200 QNH3038INS
  BECMG 1217/1218 09006KT 9999 BKN050 QNH3039INS
  BECMG 1305/1306 04006KT 9999 FEW060 QNH3038INS TX07/1221Z TNM03/1212Z
N 27 607' KPAE TAF KPAE 121120Z 1212/1312 00000KT P6SM SCT100 BKN200
  FM121700 VRB03KT P6SM BKN080 BKN150
  FM122200 VRB03KT P6SM SCT080 SCT150
SW 37 207' KOLM TAF KOLM 121120Z 1212/1312 22005KT P6SM BKN200
  FM122000 VRB03KT P6SM SCT200
  FM131100 00000KT 1SM BR SKC
N 55 47' KNUW TAF KNUW 1207/1307 VRB06KT 8000 BCFG SCT100 SCT250 520909 521809 522709 QNH3040INS
  FM120900 VRB06KT 8000 BCFG SCT005 SCT100 BKN250 520909 521809 522709 QNH3043INS
  TEMPO 1212/1218 26008KT 1600 BR SCT005 BKN100 BKN250
  FM121800 26008KT 9999 FEW005 SCT100 BKN250 520909 521809 522709 QNH3037INS
  TEMPO 1300/1306 VRB06KT 3200 BR T01/1212Z T09/1222Z FS30102
NW 62 291' KCLM TAF KCLM 121120Z 1212/1312 00000KT P6SM SCT050 OVC080
  FM122000 VRB04KT P6SM SCT040 SCT080 SCT200
SW 72 17' KHQM TAF KHQM 121120Z 1212/1312 07008KT P6SM SCT035 BKN080 BKN200
  TEMPO 1212/1216 BKN035 OVC080
  FM121800 VRB04KT P6SM SCT040 SCT080 SCT200
  FM122200 33005KT P6SM SCT200
N 81 170' KBLI TAF KBLI 121120Z 1212/1312 00000KT P6SM VCFG OVC045
  FM121600 VRB04KT P6SM BKN040 BKN080 BKN200
  FM122000 30004KT P6SM SCT040 SCT080 SCT200
E 85 1248' KEAT KEAT 121139Z 1212/1312 VRB03KT P6SM OVC018
SE 89 1098' KYKM KYKM 121134Z 1212/1312 VRB02KT P6SM OVC018
  FM121800 10003KT P6SM OVC021
  FM130100 29003KT P6SM OVC019
Area forecast:
000
FAUS46 KKCI 101945
FA6W  
SFOC FA 101945
SYNOPSIS AND VFR CLDS/WX
SYNOPSIS VALID UNTIL 111400
CLDS/WX VALID UNTIL 110800...OTLK VALID 110800-111400
WA OR CA AND CSTL WTRS
.
SEE AIRMET SIERRA FOR IFR CONDS AND MTN OBSCN.
TS IMPLY SEV OR GTR TURB SEV ICE LLWS AND IFR CONDS.
NON MSL HGTS DENOTED BY AGL OR CIG.
.
SYNOPSIS...UPR LVL TROF WAS LOCATED NR 130W. MOIST SWLY FLOW
EXTDS FROM PAC NW EWD INTO NRN ROCKIES. HIGH PRES RIDGE WAS OVR
MUCH OF THE REST OF THE AREA. BY 14Z...UPR LVL TROF WILL EXTD
FROM WA-OR SWD INTO CA.  ..STREIB..
.
WA CASCDS WWD
CSTL SXNS
CSTLN-INLAND...SCT-BKN025 BKN035-050 TOPS 120-140. ISOL -SHRA.
   OTLK...MVFR CIGS SHRA BR.
PUGET SOUND-INTR VLY...SCT-BKN020 BKN-OVC035-050 TOPS 160 BKN CI.
   WDLY SCT -SHRA. OTLK...MVFR CIGS SHRA.
CASCDS...BKN-OVC050-070 TOPS FL180. BKN CI ABV. WDLY SCT -SHRA.
   OTLK...MVFR CIGS SHRA.
.
WA E OF CASCDS
CNTRL WA...SCT140 OVC CI. BECMG 2302 SCT080 BKN120 LYRD FL240.
   OTLK...VFR.
ERN WA...SCT-BKN140-160 LYRD FL240. BECMG 0508 BKN080 OVC120
   LYRD FL240 ISOL -SHRA DVLPG. OTLK...VFR.
.
OR CASCDS WWD
CSTL SXNS
CSTLN-INLAND...SCT-BKN020 BKN-OVC035-050 TOPS FL180. WDLY SCT
   -SHRA. OTLK...MVFR CIGS SHRA.
WILLAMETTE VLY/SWRN INTR...SCT-BKN020 BKN-OVC035-050 TOPS FL180.
   WDLY SCT -SHRA. OTLK...MVFR CIGS SHRA.
CASCDS...SCT-BKN060 BKN-OVC080-100 TOPS FL180 ISOL -SHRA.
   OTLK...MVFR CIGS SHRA.
.
OR E OF CASCDS
CNTRL...SCT100-120 BKN150 LYRD FL240. OTLK...VFR.
ERN...SCT130-150 BKN CI. BECMG 0205 OVC120-140 LYRD FL240.
   OTLK...VFR.
.
NRN CA...STS-SAC-TVL LN NWD
CSTL SXNS...
   FOT NWD...SCT025 BKN CI ABV. BECMG 0205 SCT020 OVC050 TOPS
      160. ISOL -SHRA. OTLK...IFR CIGS.
   S OF FOT...SCT-BKN010 TOPS 030-040. OTLK...IFR CIGS.
REST OF AREA...SKC OCNL SCT CI. OCNL VYS 3-5SM FU HZ.
   OTLK...VFR.
SAC VLY...
   NRN AND CNTRL SXNS...SKC. OTLK...VFR.
   SRN SXNS...SKC. OCNL VIS 3-5SM FU HZ. OTLK...MVFR FU HZ.
SHASTA-SISKIYOUS-NERN CA...
NRN SIERRAS...SKC OCNL SCT CI. WINDS SLY G25KT. OTLK...VFR WIND.
.
CNTRL CA
CSTL SXNS...
   CSTLN...SKC OCNL SCT010. BECMG 0508 OCNL CIGS BKN-SCT010 TOPS
      020-030. OTLK...IFR CIGS.
   INLAND...SKC. OTLK...VFR BECMG 1114 IFR CIGS BR.
SAN JOAQUIN VLY...SKC. OTLK...VFR.
SRN SIERRAS..SKC. OTLK...VFR.
.
SRN CA..VBG-NID-60NNW BIH LN SWD
CSTL SXNS...
   CSTLN...
      EXTRM SRN SXNS...SKC. BECMG 0205 SCT010. BECMG 0508 CIGS
         BKN-OVC010 TOPS 030. OTLK...IFR CIGS.
      REST OF AREA...SKC. OTLK...VFR BECMG 0811 IFR CIGS BR.
   INLAND...SKC OCNL FEW CI. OTLK...VFR.
INTR MTNS-MOJAVE-SRN DESERTS...SKC OCNL FEW CI. OTLK...VFR.
.
CSTL WTRS
WA...SCT-BKN035-050 TOPS 100-120. ISOL -SHRA. OTLK...VFR.
OR...
NWRN HLF...SCT-BKN035-050 TOPS 100-120. ISOL -SHRA. OTLK...VFR.
SERN HLF...SCT-BKN025 BKN035-050 TOPS FL180 BKN CI ABV. WDLY SCT
   -SHRA. OTLK...MVFR CIGS SHRA.
CA...
NRN CA...
   FOT NWD...SCT025 BKN CI ABV. BECMG 0205 SCT020 OVC050 TOPS
      160. ISOL -SHRA. OTLK...IFR CIGS.
   S OF FOT...SCT-BKN010 TOPS 030-040. OTLK...IFR CIGS.
CNTRL CA...SCT-BKN010 TOPS 030-040. OTLK...IFR CIGS.
SRN CA...
   OUTER CSTL WTRS...CIGS BKN010-020 TOPS 030-050.
      OTLK...IFR CIGS.
   ADJ CSTL WTRS...SKC. OCNL AGL SCT010. OTLK...VFR BECMG 0811
      IFR CIGS BR.
.
THE AREA FORECAST WILL TERMINATE AT 2359Z ON 10 OCTOBER 2017. IN
PLACE OF THE AREA FORECAST...PLEASE SEE THE GRAPHICAL FORECAST AT
WWW.AVIATIONWEATHER.GOV/GFA. GRAPHICAL AND TEXT AIRMETS WILL
CONTINUE AS REGULARLY SCHEDULED.
....

Shortcut to this page: http://wxbay.com.

Data may contain errors.